Observations for AMSTERDAM SCHIPHOL, Netherlands (EHAM)

EHAM 240925Z 16010KT 110V190 CAVOK 27/18 Q1017 NOSIG
EHAM 240855Z 15011KT 110V190 CAVOK 27/18 Q1017 NOSIG
EHAM 240825Z 14010KT 110V180 CAVOK 26/18 Q1017 NOSIG
EHAM 240755Z 13010KT 100V170 CAVOK 25/17 Q1017 NOSIG
EHAM 240725Z 13011KT 080V160 CAVOK 25/17 Q1017 NOSIG
EHAM 240655Z 12011KT 090V150 CAVOK 24/16 Q1017 NOSIG
EHAM 240625Z 13009KT 100V160 CAVOK 22/15 Q1017 NOSIG
EHAM 240555Z 12008KT CAVOK 22/15 Q1017 NOSIG
EHAM 240525Z 13009KT 080V150 CAVOK 21/14 Q1017 NOSIG
EHAM 240455Z 12009KT CAVOK 21/13 Q1017 NOSIG
EHAM 240425Z 11009KT CAVOK 20/13 Q1017 NOSIG
EHAM 240355Z 11008KT CAVOK 20/12 Q1017 NOSIG
EHAM 240325Z 11009KT CAVOK 20/12 Q1017 NOSIG
EHAM 240255Z 11009KT CAVOK 21/12 Q1017 NOSIG
EHAM 240225Z 11010KT CAVOK 21/12 Q1017 NOSIG
EHAM 240155Z 11010KT CAVOK 22/12 Q1017 NOSIG
EHAM 240125Z 11010KT CAVOK 22/12 Q1017 NOSIG
EHAM 240055Z 10010KT CAVOK 22/12 Q1018 NOSIG
EHAM 240025Z 10010KT CAVOK 22/12 Q1018 NOSIG
EHAM 232355Z 10011KT CAVOK 22/12 Q1018 NOSIG
EHAM 232325Z 10011KT CAVOK 23/12 Q1018 NOSIG
EHAM 232255Z 10010KT 060V120 CAVOK 23/12 Q1017 NOSIG
EHAM 232225Z 10010KT 070V130 CAVOK 24/12 Q1017 NOSIG
EHAM 232155Z 10009KT 080V140 CAVOK 24/12 Q1017 NOSIG
EHAM 232125Z 10008KT CAVOK 24/13 Q1017 NOSIG
EHAM 232055Z 10009KT 070V130 CAVOK 24/13 Q1017 NOSIG
EHAM 232025Z 08008KT CAVOK 24/13 Q1017 NOSIG
EHAM 231955Z 10008KT CAVOK 25/14 Q1017 NOSIG
EHAM 231925Z 09007KT CAVOK 25/15 Q1016 NOSIG
EHAM 231855Z 08006KT CAVOK 24/17 Q1016 NOSIG
EHAM 231825Z 10006KT 050V140 CAVOK 26/17 Q1016 NOSIG
EHAM 231755Z 12007KT 090V150 CAVOK 26/16 Q1016 NOSIG
EHAM 231725Z 12007KT 090V150 CAVOK 27/16 Q1016 NOSIG
EHAM 231655Z 11006KT CAVOK 27/16 Q1016 NOSIG
EHAM 231625Z 09004KT 020V150 CAVOK 28/17 Q1017 NOSIG
EHAM 231555Z 09006KT 040V130 CAVOK 28/16 Q1017 NOSIG
EHAM 231525Z 05006KT 010V090 9999 FEW049 28/16 Q1017 NOSIG  
EHAM 231455Z 07008KT 020V100 9999 FEW049 28/18 Q1017 NOSIG  
EHAM 231425Z 05009KT 360V120 9999 FEW045 27/17 Q1017 NOSIG  
EHAM 231355Z 05009KT 010V160 9999 FEW045 27/19 Q1017 NOSIG  
EHAM 231325Z 06010KT 010V130 9999 FEW045 27/18 Q1018 NOSIG  
EHAM 231255Z 07009KT 340V120 9999 FEW035 26/18 Q1018 NOSIG  
EHAM 231225Z 04007KT 360V070 CAVOK 26/18 Q1018 NOSIG
EHAM 231155Z 06007KT 010V090 CAVOK 26/18 Q1018 NOSIG
EHAM 231125Z 08005KT 350V140 CAVOK 25/18 Q1018 NOSIG
EHAM 231055Z 07005KT 020V110 CAVOK 25/18 Q1018 NOSIG
EHAM 231025Z 06005KT 340V110 CAVOK 24/18 Q1019 NOSIG
EHAM 230955Z 09005KT 030V180 CAVOK 24/17 Q1019 NOSIG
EHAM 230925Z 07005KT 030V120 CAVOK 23/16 Q1019 NOSIG
EHAM 230855Z 09007KT 050V130 CAVOK 23/17 Q1019 NOSIG